sensor_id;sensor_type;location;lat;lon;timestamp;P1;durP1;ratioP1;P2;durP2;ratioP2
74369;SDS011;62805;44.644;10.942;2023-02-11T00:00:55;21.83;;;9.60;;
74369;SDS011;62805;44.644;10.942;2023-02-11T00:03:20;28.00;;;10.73;;
74369;SDS011;62805;44.644;10.942;2023-02-11T00:05:55;29.10;;;10.25;;
74369;SDS011;62805;44.644;10.942;2023-02-11T00:08:21;30.75;;;11.85;;
74369;SDS011;62805;44.644;10.942;2023-02-11T00:10:50;23.60;;;9.20;;
74369;SDS011;62805;44.644;10.942;2023-02-11T00:13:16;24.48;;;9.73;;
74369;SDS011;62805;44.644;10.942;2023-02-11T00:15:42;27.00;;;11.17;;
74369;SDS011;62805;44.644;10.942;2023-02-11T00:18:07;23.35;;;9.35;;
74369;SDS011;62805;44.644;10.942;2023-02-11T00:20:33;26.90;;;11.52;;
74369;SDS011;62805;44.644;10.942;2023-02-11T00:22:58;23.83;;;10.07;;
74369;SDS011;62805;44.644;10.942;2023-02-11T00:25:23;26.70;;;9.75;;
74369;SDS011;62805;44.644;10.942;2023-02-11T00:27:49;25.60;;;9.53;;
74369;SDS011;62805;44.644;10.942;2023-02-11T00:30:15;31.60;;;10.68;;
74369;SDS011;62805;44.644;10.942;2023-02-11T00:32:41;24.33;;;10.60;;
74369;SDS011;62805;44.644;10.942;2023-02-11T00:35:07;30.05;;;10.52;;
74369;SDS011;62805;44.644;10.942;2023-02-11T00:37:32;28.67;;;10.50;;
74369;SDS011;62805;44.644;10.942;2023-02-11T00:40:00;27.88;;;10.23;;
74369;SDS011;62805;44.644;10.942;2023-02-11T00:42:26;25.58;;;10.00;;
74369;SDS011;62805;44.644;10.942;2023-02-11T00:44:52;23.63;;;9.63;;
74369;SDS011;62805;44.644;10.942;2023-02-11T00:47:17;27.37;;;10.70;;
74369;SDS011;62805;44.644;10.942;2023-02-11T00:49:42;23.00;;;9.73;;
74369;SDS011;62805;44.644;10.942;2023-02-11T00:52:08;24.73;;;10.50;;
74369;SDS011;62805;44.644;10.942;2023-02-11T00:54:33;24.30;;;9.63;;
74369;SDS011;62805;44.644;10.942;2023-02-11T00:56:59;26.30;;;10.35;;
74369;SDS011;62805;44.644;10.942;2023-02-11T00:59:24;22.80;;;8.80;;
74369;SDS011;62805;44.644;10.942;2023-02-11T01:01:49;26.77;;;8.80;;
74369;SDS011;62805;44.644;10.942;2023-02-11T01:04:16;24.98;;;9.73;;
74369;SDS011;62805;44.644;10.942;2023-02-11T01:06:42;24.20;;;9.35;;
74369;SDS011;62805;44.644;10.942;2023-02-11T01:09:07;26.90;;;9.80;;
74369;SDS011;62805;44.644;10.942;2023-02-11T01:11:32;21.10;;;8.83;;
74369;SDS011;62805;44.644;10.942;2023-02-11T01:13:58;24.40;;;9.55;;
74369;SDS011;62805;44.644;10.942;2023-02-11T01:16:23;22.77;;;9.15;;
74369;SDS011;62805;44.644;10.942;2023-02-11T01:18:49;24.10;;;10.07;;
74369;SDS011;62805;44.644;10.942;2023-02-11T01:21:14;27.80;;;10.48;;
74369;SDS011;62805;44.644;10.942;2023-02-11T01:23:40;20.27;;;8.57;;
74369;SDS011;62805;44.644;10.942;2023-02-11T01:26:06;21.80;;;9.15;;
74369;SDS011;62805;44.644;10.942;2023-02-11T01:28:31;20.02;;;7.78;;
74369;SDS011;62805;44.644;10.942;2023-02-11T01:30:56;21.23;;;9.83;;
74369;SDS011;62805;44.644;10.942;2023-02-11T01:33:22;25.55;;;9.70;;
74369;SDS011;62805;44.644;10.942;2023-02-11T01:35:48;24.73;;;8.75;;
74369;SDS011;62805;44.644;10.942;2023-02-11T01:38:18;22.70;;;8.23;;
74369;SDS011;62805;44.644;10.942;2023-02-11T01:40:49;25.13;;;9.23;;
74369;SDS011;62805;44.644;10.942;2023-02-11T01:43:15;21.88;;;8.60;;
74369;SDS011;62805;44.644;10.942;2023-02-11T01:48:11;25.42;;;9.20;;
74369;SDS011;62805;44.644;10.942;2023-02-11T01:50:38;27.27;;;9.82;;
74369;SDS011;62805;44.644;10.942;2023-02-11T01:53:04;21.35;;;8.10;;
74369;SDS011;62805;44.644;10.942;2023-02-11T01:55:48;20.70;;;8.93;;
74369;SDS011;62805;44.644;10.942;2023-02-11T01:58:33;20.15;;;8.05;;
74369;SDS011;62805;44.644;10.942;2023-02-11T02:01:00;24.48;;;8.38;;
74369;SDS011;62805;44.644;10.942;2023-02-11T02:03:27;19.90;;;8.30;;
74369;SDS011;62805;44.644;10.942;2023-02-11T02:06:00;17.15;;;7.72;;
74369;SDS011;62805;44.644;10.942;2023-02-11T02:11:05;19.17;;;7.90;;
74369;SDS011;62805;44.644;10.942;2023-02-11T02:13:31;17.38;;;6.82;;
74369;SDS011;62805;44.644;10.942;2023-02-11T02:16:01;24.88;;;7.40;;
74369;SDS011;62805;44.644;10.942;2023-02-11T02:30:24;15.80;;;6.72;;
74369;SDS011;62805;44.644;10.942;2023-02-11T02:38:38;17.08;;;6.88;;
74369;SDS011;62805;44.644;10.942;2023-02-11T02:41:09;17.58;;;6.32;;
74369;SDS011;62805;44.644;10.942;2023-02-11T02:43:38;19.40;;;6.47;;
74369;SDS011;62805;44.644;10.942;2023-02-11T02:46:13;21.00;;;7.15;;
74369;SDS011;62805;44.644;10.942;2023-02-11T02:48:43;21.13;;;7.43;;
74369;SDS011;62805;44.644;10.942;2023-02-11T02:53:57;16.52;;;6.78;;
74369;SDS011;62805;44.644;10.942;2023-02-11T03:05:05;14.23;;;6.05;;
74369;SDS011;62805;44.644;10.942;2023-02-11T03:08:15;12.50;;;5.15;;
74369;SDS011;62805;44.644;10.942;2023-02-11T03:10:44;15.57;;;6.78;;
74369;SDS011;62805;44.644;10.942;2023-02-11T03:13:11;16.85;;;6.40;;
74369;SDS011;62805;44.644;10.942;2023-02-11T03:15:41;15.18;;;6.68;;
74369;SDS011;62805;44.644;10.942;2023-02-11T03:23:03;16.88;;;6.60;;
74369;SDS011;62805;44.644;10.942;2023-02-11T03:25:46;18.73;;;6.53;;
74369;SDS011;62805;44.644;10.942;2023-02-11T03:33:49;15.77;;;6.80;;
74369;SDS011;62805;44.644;10.942;2023-02-11T03:36:21;21.10;;;7.88;;
74369;SDS011;62805;44.644;10.942;2023-02-11T03:38:52;20.23;;;7.07;;
74369;SDS011;62805;44.644;10.942;2023-02-11T03:41:21;15.05;;;6.68;;
74369;SDS011;62805;44.644;10.942;2023-02-11T03:43:49;18.63;;;7.00;;
74369;SDS011;62805;44.644;10.942;2023-02-11T03:46:18;15.88;;;7.07;;
74369;SDS011;62805;44.644;10.942;2023-02-11T03:48:48;14.68;;;6.60;;
74369;SDS011;62805;44.644;10.942;2023-02-11T03:51:16;16.02;;;6.65;;
74369;SDS011;62805;44.644;10.942;2023-02-11T03:53:44;19.23;;;7.43;;
74369;SDS011;62805;44.644;10.942;2023-02-11T03:56:12;15.93;;;6.00;;
74369;SDS011;62805;44.644;10.942;2023-02-11T03:58:40;16.92;;;7.35;;
74369;SDS011;62805;44.644;10.942;2023-02-11T04:01:05;15.90;;;7.60;;
74369;SDS011;62805;44.644;10.942;2023-02-11T04:03:33;17.67;;;6.65;;
74369;SDS011;62805;44.644;10.942;2023-02-11T04:05:59;16.63;;;6.95;;
74369;SDS011;62805;44.644;10.942;2023-02-11T04:08:24;15.48;;;6.30;;
74369;SDS011;62805;44.644;10.942;2023-02-11T04:10:50;16.15;;;6.60;;
74369;SDS011;62805;44.644;10.942;2023-02-11T04:13:15;18.10;;;6.40;;
74369;SDS011;62805;44.644;10.942;2023-02-11T04:15:40;15.75;;;6.18;;
74369;SDS011;62805;44.644;10.942;2023-02-11T04:18:06;16.88;;;6.40;;
74369;SDS011;62805;44.644;10.942;2023-02-11T04:20:31;20.70;;;6.75;;
74369;SDS011;62805;44.644;10.942;2023-02-11T04:22:56;20.05;;;6.25;;
74369;SDS011;62805;44.644;10.942;2023-02-11T04:25:22;17.55;;;6.30;;
74369;SDS011;62805;44.644;10.942;2023-02-11T04:27:47;17.85;;;5.93;;
74369;SDS011;62805;44.644;10.942;2023-02-11T04:30:13;20.83;;;6.30;;
74369;SDS011;62805;44.644;10.942;2023-02-11T04:32:38;10.57;;;5.07;;
74369;SDS011;62805;44.644;10.942;2023-02-11T04:35:04;14.40;;;5.95;;
74369;SDS011;62805;44.644;10.942;2023-02-11T04:37:30;12.85;;;5.38;;
74369;SDS011;62805;44.644;10.942;2023-02-11T04:39:55;12.55;;;5.10;;
74369;SDS011;62805;44.644;10.942;2023-02-11T04:42:21;15.68;;;5.88;;
74369;SDS011;62805;44.644;10.942;2023-02-11T04:44:46;11.38;;;4.88;;
74369;SDS011;62805;44.644;10.942;2023-02-11T04:47:11;16.77;;;5.30;;
74369;SDS011;62805;44.644;10.942;2023-02-11T04:49:39;15.13;;;5.15;;
74369;SDS011;62805;44.644;10.942;2023-02-11T04:52:05;10.00;;;4.20;;
74369;SDS011;62805;44.644;10.942;2023-02-11T04:54:31;13.68;;;5.43;;
74369;SDS011;62805;44.644;10.942;2023-02-11T04:56:56;10.47;;;3.93;;
74369;SDS011;62805;44.644;10.942;2023-02-11T04:59:21;10.57;;;4.53;;
74369;SDS011;62805;44.644;10.942;2023-02-11T05:01:47;10.93;;;5.00;;
74369;SDS011;62805;44.644;10.942;2023-02-11T05:04:13;13.77;;;5.53;;
74369;SDS011;62805;44.644;10.942;2023-02-11T05:06:38;11.02;;;5.10;;
74369;SDS011;62805;44.644;10.942;2023-02-11T05:09:04;14.20;;;5.28;;
74369;SDS011;62805;44.644;10.942;2023-02-11T05:11:29;13.50;;;4.60;;
74369;SDS011;62805;44.644;10.942;2023-02-11T05:13:55;13.35;;;5.13;;
74369;SDS011;62805;44.644;10.942;2023-02-11T05:16:20;8.85;;;3.53;;
74369;SDS011;62805;44.644;10.942;2023-02-11T05:18:46;12.20;;;5.32;;
74369;SDS011;62805;44.644;10.942;2023-02-11T05:21:12;10.05;;;4.28;;
74369;SDS011;62805;44.644;10.942;2023-02-11T05:23:40;11.45;;;4.43;;
74369;SDS011;62805;44.644;10.942;2023-02-11T05:26:06;9.23;;;4.53;;
74369;SDS011;62805;44.644;10.942;2023-02-11T05:28:32;9.32;;;4.03;;
74369;SDS011;62805;44.644;10.942;2023-02-11T05:30:57;12.10;;;4.75;;
74369;SDS011;62805;44.644;10.942;2023-02-11T05:33:23;11.68;;;4.25;;
74369;SDS011;62805;44.644;10.942;2023-02-11T05:35:48;16.58;;;4.88;;
74369;SDS011;62805;44.644;10.942;2023-02-11T05:38:14;16.45;;;4.93;;
74369;SDS011;62805;44.644;10.942;2023-02-11T05:40:40;13.70;;;4.57;;
74369;SDS011;62805;44.644;10.942;2023-02-11T05:43:05;12.57;;;4.75;;
74369;SDS011;62805;44.644;10.942;2023-02-11T05:45:31;13.10;;;4.97;;
74369;SDS011;62805;44.644;10.942;2023-02-11T05:47:56;13.68;;;4.88;;
74369;SDS011;62805;44.644;10.942;2023-02-11T05:50:22;11.52;;;4.78;;
74369;SDS011;62805;44.644;10.942;2023-02-11T05:52:47;11.00;;;4.30;;
74369;SDS011;62805;44.644;10.942;2023-02-11T05:55:14;11.02;;;4.60;;
74369;SDS011;62805;44.644;10.942;2023-02-11T05:57:39;15.50;;;5.70;;
74369;SDS011;62805;44.644;10.942;2023-02-11T06:00:05;10.70;;;4.53;;
74369;SDS011;62805;44.644;10.942;2023-02-11T06:02:31;9.40;;;4.40;;
74369;SDS011;62805;44.644;10.942;2023-02-11T06:04:57;10.02;;;4.88;;
74369;SDS011;62805;44.644;10.942;2023-02-11T06:07:23;12.00;;;4.85;;
74369;SDS011;62805;44.644;10.942;2023-02-11T06:09:48;14.38;;;4.47;;
74369;SDS011;62805;44.644;10.942;2023-02-11T06:12:14;13.07;;;5.32;;
74369;SDS011;62805;44.644;10.942;2023-02-11T06:14:39;12.23;;;4.67;;
74369;SDS011;62805;44.644;10.942;2023-02-11T06:17:04;9.93;;;3.85;;
74369;SDS011;62805;44.644;10.942;2023-02-11T06:19:30;13.87;;;4.70;;
74369;SDS011;62805;44.644;10.942;2023-02-11T06:21:56;11.15;;;4.10;;
74369;SDS011;62805;44.644;10.942;2023-02-11T06:24:21;10.52;;;4.82;;
74369;SDS011;62805;44.644;10.942;2023-02-11T06:26:47;11.15;;;4.78;;
74369;SDS011;62805;44.644;10.942;2023-02-11T06:29:12;11.57;;;4.53;;
74369;SDS011;62805;44.644;10.942;2023-02-11T06:31:38;10.55;;;4.45;;
74369;SDS011;62805;44.644;10.942;2023-02-11T06:34:03;11.50;;;4.18;;
74369;SDS011;62805;44.644;10.942;2023-02-11T06:36:29;9.85;;;4.03;;
74369;SDS011;62805;44.644;10.942;2023-02-11T06:38:54;11.15;;;4.22;;
74369;SDS011;62805;44.644;10.942;2023-02-11T06:41:20;12.98;;;5.30;;
74369;SDS011;62805;44.644;10.942;2023-02-11T06:43:45;10.68;;;4.22;;
74369;SDS011;62805;44.644;10.942;2023-02-11T06:46:11;11.33;;;4.13;;
74369;SDS011;62805;44.644;10.942;2023-02-11T06:48:36;13.70;;;4.95;;
74369;SDS011;62805;44.644;10.942;2023-02-11T06:51:03;12.27;;;4.65;;
74369;SDS011;62805;44.644;10.942;2023-02-11T06:53:30;13.55;;;4.30;;
74369;SDS011;62805;44.644;10.942;2023-02-11T06:56:03;13.80;;;4.72;;
74369;SDS011;62805;44.644;10.942;2023-02-11T06:58:29;11.73;;;4.18;;
74369;SDS011;62805;44.644;10.942;2023-02-11T07:00:54;10.40;;;4.40;;
74369;SDS011;62805;44.644;10.942;2023-02-11T07:03:19;10.60;;;4.30;;
74369;SDS011;62805;44.644;10.942;2023-02-11T07:05:45;13.50;;;4.97;;
74369;SDS011;62805;44.644;10.942;2023-02-11T07:08:10;10.98;;;4.50;;
74369;SDS011;62805;44.644;10.942;2023-02-11T07:10:36;8.32;;;4.28;;
74369;SDS011;62805;44.644;10.942;2023-02-11T07:13:01;12.13;;;4.35;;
74369;SDS011;62805;44.644;10.942;2023-02-11T07:15:26;17.25;;;5.07;;
74369;SDS011;62805;44.644;10.942;2023-02-11T07:17:52;11.43;;;4.30;;
74369;SDS011;62805;44.644;10.942;2023-02-11T07:20:17;12.65;;;4.90;;
74369;SDS011;62805;44.644;10.942;2023-02-11T07:22:43;10.48;;;4.05;;
74369;SDS011;62805;44.644;10.942;2023-02-11T07:25:08;12.70;;;4.57;;
74369;SDS011;62805;44.644;10.942;2023-02-11T07:27:34;13.40;;;5.18;;
74369;SDS011;62805;44.644;10.942;2023-02-11T07:29:59;13.90;;;5.45;;
74369;SDS011;62805;44.644;10.942;2023-02-11T07:32:24;13.70;;;4.40;;
74369;SDS011;62805;44.644;10.942;2023-02-11T07:34:50;12.90;;;4.68;;
74369;SDS011;62805;44.644;10.942;2023-02-11T07:37:15;14.87;;;4.67;;
74369;SDS011;62805;44.644;10.942;2023-02-11T07:39:40;13.83;;;4.60;;
74369;SDS011;62805;44.644;10.942;2023-02-11T07:42:06;10.97;;;4.17;;
74369;SDS011;62805;44.644;10.942;2023-02-11T07:44:31;14.85;;;4.78;;
74369;SDS011;62805;44.644;10.942;2023-02-11T07:46:57;14.35;;;4.35;;
74369;SDS011;62805;44.644;10.942;2023-02-11T07:49:23;15.80;;;4.80;;
74369;SDS011;62805;44.644;10.942;2023-02-11T07:51:49;13.20;;;4.75;;
74369;SDS011;62805;44.644;10.942;2023-02-11T07:54:15;13.98;;;5.05;;
74369;SDS011;62805;44.644;10.942;2023-02-11T07:56:41;11.35;;;4.88;;
74369;SDS011;62805;44.644;10.942;2023-02-11T07:59:06;13.47;;;4.87;;
74369;SDS011;62805;44.644;10.942;2023-02-11T08:01:31;13.05;;;4.80;;
74369;SDS011;62805;44.644;10.942;2023-02-11T08:03:58;15.07;;;4.43;;
74369;SDS011;62805;44.644;10.942;2023-02-11T08:06:26;16.83;;;5.13;;
74369;SDS011;62805;44.644;10.942;2023-02-11T08:08:52;12.07;;;4.63;;
74369;SDS011;62805;44.644;10.942;2023-02-11T08:11:21;10.68;;;4.53;;
74369;SDS011;62805;44.644;10.942;2023-02-11T08:13:48;12.27;;;4.97;;
74369;SDS011;62805;44.644;10.942;2023-02-11T08:18:44;10.98;;;4.43;;
74369;SDS011;62805;44.644;10.942;2023-02-11T08:21:10;10.27;;;4.10;;
74369;SDS011;62805;44.644;10.942;2023-02-11T08:23:36;12.23;;;5.10;;
74369;SDS011;62805;44.644;10.942;2023-02-11T08:26:03;15.98;;;5.45;;
74369;SDS011;62805;44.644;10.942;2023-02-11T08:28:29;11.43;;;4.80;;
74369;SDS011;62805;44.644;10.942;2023-02-11T08:30:55;12.90;;;5.18;;
74369;SDS011;62805;44.644;10.942;2023-02-11T08:33:20;13.38;;;5.60;;
74369;SDS011;62805;44.644;10.942;2023-02-11T08:35:46;14.90;;;5.90;;
74369;SDS011;62805;44.644;10.942;2023-02-11T08:38:11;14.85;;;5.57;;
74369;SDS011;62805;44.644;10.942;2023-02-11T08:40:36;21.23;;;7.50;;
74369;SDS011;62805;44.644;10.942;2023-02-11T08:43:02;15.57;;;6.67;;
74369;SDS011;62805;44.644;10.942;2023-02-11T08:45:27;16.42;;;6.35;;
74369;SDS011;62805;44.644;10.942;2023-02-11T08:47:53;17.52;;;6.85;;
74369;SDS011;62805;44.644;10.942;2023-02-11T08:50:18;17.43;;;6.70;;
74369;SDS011;62805;44.644;10.942;2023-02-11T08:52:44;19.73;;;7.32;;
74369;SDS011;62805;44.644;10.942;2023-02-11T08:55:09;19.40;;;7.85;;
74369;SDS011;62805;44.644;10.942;2023-02-11T08:57:36;20.65;;;7.10;;
74369;SDS011;62805;44.644;10.942;2023-02-11T09:00:02;20.97;;;7.90;;
74369;SDS011;62805;44.644;10.942;2023-02-11T09:02:28;19.30;;;8.15;;
74369;SDS011;62805;44.644;10.942;2023-02-11T09:04:54;20.20;;;8.70;;
74369;SDS011;62805;44.644;10.942;2023-02-11T09:07:19;19.88;;;7.40;;
74369;SDS011;62805;44.644;10.942;2023-02-11T09:09:45;20.35;;;7.35;;
74369;SDS011;62805;44.644;10.942;2023-02-11T09:12:10;17.50;;;7.60;;
74369;SDS011;62805;44.644;10.942;2023-02-11T09:14:36;25.33;;;9.55;;
74369;SDS011;62805;44.644;10.942;2023-02-11T09:17:02;23.23;;;9.77;;
74369;SDS011;62805;44.644;10.942;2023-02-11T09:19:27;26.33;;;8.50;;
74369;SDS011;62805;44.644;10.942;2023-02-11T09:21:53;17.63;;;8.03;;
74369;SDS011;62805;44.644;10.942;2023-02-11T09:24:18;24.55;;;10.25;;
74369;SDS011;62805;44.644;10.942;2023-02-11T09:26:44;19.52;;;9.07;;
74369;SDS011;62805;44.644;10.942;2023-02-11T09:29:09;25.60;;;9.48;;
74369;SDS011;62805;44.644;10.942;2023-02-11T09:31:36;13.57;;;5.78;;
74369;SDS011;62805;44.644;10.942;2023-02-11T09:34:03;20.63;;;8.50;;
74369;SDS011;62805;44.644;10.942;2023-02-11T09:36:30;17.08;;;7.95;;
74369;SDS011;62805;44.644;10.942;2023-02-11T09:38:58;24.67;;;9.55;;
74369;SDS011;62805;44.644;10.942;2023-02-11T09:44:03;22.23;;;8.82;;
74369;SDS011;62805;44.644;10.942;2023-02-11T09:46:32;21.58;;;9.35;;
74369;SDS011;62805;44.644;10.942;2023-02-11T09:49:00;20.83;;;10.20;;
74369;SDS011;62805;44.644;10.942;2023-02-11T09:52:00;25.92;;;10.15;;
74369;SDS011;62805;44.644;10.942;2023-02-11T09:54:33;24.83;;;10.15;;
74369;SDS011;62805;44.644;10.942;2023-02-11T09:57:25;23.92;;;9.57;;
74369;SDS011;62805;44.644;10.942;2023-02-11T09:59:56;27.55;;;10.23;;
74369;SDS011;62805;44.644;10.942;2023-02-11T10:05:20;23.08;;;9.88;;
74369;SDS011;62805;44.644;10.942;2023-02-11T10:13:45;24.38;;;9.57;;
74369;SDS011;62805;44.644;10.942;2023-02-11T10:24:16;20.05;;;9.88;;
74369;SDS011;62805;44.644;10.942;2023-02-11T10:26:42;24.50;;;9.98;;
74369;SDS011;62805;44.644;10.942;2023-02-11T10:29:23;24.13;;;10.40;;
74369;SDS011;62805;44.644;10.942;2023-02-11T10:31:53;24.58;;;11.80;;
74369;SDS011;62805;44.644;10.942;2023-02-11T10:34:18;25.88;;;11.73;;
74369;SDS011;62805;44.644;10.942;2023-02-11T10:36:43;24.63;;;11.17;;
74369;SDS011;62805;44.644;10.942;2023-02-11T10:39:13;24.42;;;10.98;;
74369;SDS011;62805;44.644;10.942;2023-02-11T10:44:18;27.58;;;12.57;;
74369;SDS011;62805;44.644;10.942;2023-02-11T10:46:56;33.05;;;12.23;;
74369;SDS011;62805;44.644;10.942;2023-02-11T10:49:46;26.33;;;11.18;;
74369;SDS011;62805;44.644;10.942;2023-02-11T10:54:38;27.73;;;11.55;;
74369;SDS011;62805;44.644;10.942;2023-02-11T10:57:04;25.67;;;10.90;;
74369;SDS011;62805;44.644;10.942;2023-02-11T10:59:31;23.08;;;10.45;;
74369;SDS011;62805;44.644;10.942;2023-02-11T11:02:16;26.40;;;10.10;;
74369;SDS011;62805;44.644;10.942;2023-02-11T11:04:44;23.13;;;11.18;;
74369;SDS011;62805;44.644;10.942;2023-02-11T11:14:54;22.58;;;11.05;;
74369;SDS011;62805;44.644;10.942;2023-02-11T11:17:24;23.90;;;11.25;;
74369;SDS011;62805;44.644;10.942;2023-02-11T11:20:38;29.77;;;11.65;;
74369;SDS011;62805;44.644;10.942;2023-02-11T11:22:51;25.35;;;11.15;;
74369;SDS011;62805;44.644;10.942;2023-02-11T11:25:31;22.08;;;9.68;;
74369;SDS011;62805;44.644;10.942;2023-02-11T11:27:57;24.77;;;10.43;;
74369;SDS011;62805;44.644;10.942;2023-02-11T11:30:26;22.83;;;10.25;;
74369;SDS011;62805;44.644;10.942;2023-02-11T11:32:56;27.10;;;10.63;;
74369;SDS011;62805;44.644;10.942;2023-02-11T11:35:26;22.55;;;10.30;;
74369;SDS011;62805;44.644;10.942;2023-02-11T11:37:54;24.38;;;10.43;;
74369;SDS011;62805;44.644;10.942;2023-02-11T11:40:26;27.63;;;11.80;;
74369;SDS011;62805;44.644;10.942;2023-02-11T11:45:27;23.63;;;10.45;;
74369;SDS011;62805;44.644;10.942;2023-02-11T11:50:26;22.60;;;10.05;;
74369;SDS011;62805;44.644;10.942;2023-02-11T11:55:40;23.20;;;10.85;;
74369;SDS011;62805;44.644;10.942;2023-02-11T11:58:14;24.58;;;10.32;;
74369;SDS011;62805;44.644;10.942;2023-02-11T12:00:51;19.67;;;9.65;;
74369;SDS011;62805;44.644;10.942;2023-02-11T12:03:25;23.27;;;9.88;;
74369;SDS011;62805;44.644;10.942;2023-02-11T12:17:02;24.67;;;11.10;;
74369;SDS011;62805;44.644;10.942;2023-02-11T12:19:58;24.42;;;11.10;;
74369;SDS011;62805;44.644;10.942;2023-02-11T12:22:33;25.40;;;11.43;;
74369;SDS011;62805;44.644;10.942;2023-02-11T12:27:43;23.45;;;11.05;;
74369;SDS011;62805;44.644;10.942;2023-02-11T12:35:54;21.98;;;10.60;;
74369;SDS011;62805;44.644;10.942;2023-02-11T12:44:28;24.33;;;10.57;;
74369;SDS011;62805;44.644;10.942;2023-02-11T12:55:16;22.95;;;10.45;;
74369;SDS011;62805;44.644;10.942;2023-02-11T12:57:45;22.13;;;10.43;;
74369;SDS011;62805;44.644;10.942;2023-02-11T13:00:20;23.65;;;10.48;;
74369;SDS011;62805;44.644;10.942;2023-02-11T13:02:52;26.23;;;11.02;;
74369;SDS011;62805;44.644;10.942;2023-02-11T13:05:32;22.75;;;10.88;;
74369;SDS011;62805;44.644;10.942;2023-02-11T13:08:45;20.00;;;9.68;;
74369;SDS011;62805;44.644;10.942;2023-02-11T13:11:11;27.08;;;11.73;;
74369;SDS011;62805;44.644;10.942;2023-02-11T13:13:48;22.52;;;11.13;;
74369;SDS011;62805;44.644;10.942;2023-02-11T13:21:47;26.13;;;10.85;;
74369;SDS011;62805;44.644;10.942;2023-02-11T13:29:25;24.80;;;11.95;;
74369;SDS011;62805;44.644;10.942;2023-02-11T13:32:09;24.88;;;11.35;;
74369;SDS011;62805;44.644;10.942;2023-02-11T13:37:24;26.40;;;12.55;;
74369;SDS011;62805;44.644;10.942;2023-02-11T13:42:24;25.23;;;11.13;;
74369;SDS011;62805;44.644;10.942;2023-02-11T13:44:50;28.20;;;12.68;;
74369;SDS011;62805;44.644;10.942;2023-02-11T13:47:29;23.98;;;11.07;;
74369;SDS011;62805;44.644;10.942;2023-02-11T13:49:56;25.13;;;11.38;;
74369;SDS011;62805;44.644;10.942;2023-02-11T13:52:30;24.73;;;11.95;;
74369;SDS011;62805;44.644;10.942;2023-02-11T13:55:02;26.55;;;12.00;;
74369;SDS011;62805;44.644;10.942;2023-02-11T13:57:34;30.10;;;12.77;;
74369;SDS011;62805;44.644;10.942;2023-02-11T14:00:05;24.10;;;12.57;;
74369;SDS011;62805;44.644;10.942;2023-02-11T14:03:16;22.98;;;11.82;;
74369;SDS011;62805;44.644;10.942;2023-02-11T14:19:36;26.10;;;13.45;;
74369;SDS011;62805;44.644;10.942;2023-02-11T14:22:04;30.85;;;13.55;;
74369;SDS011;62805;44.644;10.942;2023-02-11T14:27:15;29.05;;;12.88;;
74369;SDS011;62805;44.644;10.942;2023-02-11T14:35:05;25.05;;;12.45;;
74369;SDS011;62805;44.644;10.942;2023-02-11T14:37:57;28.58;;;15.15;;
74369;SDS011;62805;44.644;10.942;2023-02-11T14:40:32;27.98;;;13.25;;
74369;SDS011;62805;44.644;10.942;2023-02-11T14:43:02;29.35;;;13.00;;
74369;SDS011;62805;44.644;10.942;2023-02-11T14:45:36;26.13;;;13.95;;
74369;SDS011;62805;44.644;10.942;2023-02-11T14:48:07;26.45;;;13.48;;
74369;SDS011;62805;44.644;10.942;2023-02-11T14:50:45;30.13;;;15.00;;
74369;SDS011;62805;44.644;10.942;2023-02-11T14:53:20;28.27;;;13.90;;
74369;SDS011;62805;44.644;10.942;2023-02-11T14:55:48;29.90;;;13.73;;
74369;SDS011;62805;44.644;10.942;2023-02-11T15:00:59;30.73;;;14.43;;
74369;SDS011;62805;44.644;10.942;2023-02-11T15:06:17;28.67;;;14.45;;
74369;SDS011;62805;44.644;10.942;2023-02-11T15:08:47;31.90;;;13.93;;
74369;SDS011;62805;44.644;10.942;2023-02-11T15:11:14;28.77;;;14.82;;
74369;SDS011;62805;44.644;10.942;2023-02-11T15:13:41;30.13;;;14.45;;
74369;SDS011;62805;44.644;10.942;2023-02-11T15:16:12;30.10;;;14.32;;
74369;SDS011;62805;44.644;10.942;2023-02-11T15:18:42;28.52;;;15.73;;
74369;SDS011;62805;44.644;10.942;2023-02-11T15:21:11;29.92;;;13.90;;
74369;SDS011;62805;44.644;10.942;2023-02-11T15:23:38;27.45;;;14.55;;
74369;SDS011;62805;44.644;10.942;2023-02-11T15:26:16;28.85;;;14.45;;
74369;SDS011;62805;44.644;10.942;2023-02-11T15:28:46;28.50;;;14.95;;
74369;SDS011;62805;44.644;10.942;2023-02-11T15:31:16;27.77;;;13.82;;
74369;SDS011;62805;44.644;10.942;2023-02-11T15:33:43;33.30;;;14.35;;
74369;SDS011;62805;44.644;10.942;2023-02-11T15:36:12;32.58;;;14.88;;
74369;SDS011;62805;44.644;10.942;2023-02-11T15:38:38;27.33;;;14.90;;
74369;SDS011;62805;44.644;10.942;2023-02-11T15:41:05;29.88;;;14.85;;
74369;SDS011;62805;44.644;10.942;2023-02-11T15:46:06;28.55;;;14.45;;
74369;SDS011;62805;44.644;10.942;2023-02-11T15:48:36;30.45;;;15.20;;
74369;SDS011;62805;44.644;10.942;2023-02-11T15:53:58;30.05;;;14.93;;
74369;SDS011;62805;44.644;10.942;2023-02-11T15:56:44;28.13;;;14.90;;
74369;SDS011;62805;44.644;10.942;2023-02-11T15:59:15;28.90;;;15.45;;
74369;SDS011;62805;44.644;10.942;2023-02-11T16:01:56;28.10;;;14.85;;
74369;SDS011;62805;44.644;10.942;2023-02-11T16:04:23;29.90;;;13.98;;
74369;SDS011;62805;44.644;10.942;2023-02-11T16:14:23;27.25;;;13.95;;
74369;SDS011;62805;44.644;10.942;2023-02-11T16:16:52;30.05;;;13.55;;
74369;SDS011;62805;44.644;10.942;2023-02-11T16:19:24;30.92;;;14.85;;
74369;SDS011;62805;44.644;10.942;2023-02-11T16:21:52;30.10;;;14.02;;
74369;SDS011;62805;44.644;10.942;2023-02-11T16:24:19;31.50;;;15.35;;
74369;SDS011;62805;44.644;10.942;2023-02-11T16:26:48;30.00;;;14.77;;
74369;SDS011;62805;44.644;10.942;2023-02-11T16:29:16;32.88;;;14.95;;
74369;SDS011;62805;44.644;10.942;2023-02-11T16:31:46;31.90;;;14.32;;
74369;SDS011;62805;44.644;10.942;2023-02-11T16:34:17;30.00;;;14.30;;
74369;SDS011;62805;44.644;10.942;2023-02-11T16:36:50;32.83;;;14.85;;
74369;SDS011;62805;44.644;10.942;2023-02-11T16:39:16;29.80;;;14.27;;
74369;SDS011;62805;44.644;10.942;2023-02-11T16:41:42;33.85;;;14.65;;
74369;SDS011;62805;44.644;10.942;2023-02-11T16:44:08;31.58;;;14.73;;
74369;SDS011;62805;44.644;10.942;2023-02-11T16:46:33;32.92;;;15.35;;
74369;SDS011;62805;44.644;10.942;2023-02-11T16:49:07;32.45;;;14.75;;
74369;SDS011;62805;44.644;10.942;2023-02-11T16:51:54;33.30;;;14.93;;
74369;SDS011;62805;44.644;10.942;2023-02-11T16:54:21;33.15;;;14.98;;
74369;SDS011;62805;44.644;10.942;2023-02-11T16:56:47;32.80;;;14.25;;
74369;SDS011;62805;44.644;10.942;2023-02-11T16:59:13;29.90;;;14.88;;
74369;SDS011;62805;44.644;10.942;2023-02-11T17:01:38;34.55;;;14.18;;
74369;SDS011;62805;44.644;10.942;2023-02-11T17:04:05;30.45;;;14.30;;
74369;SDS011;62805;44.644;10.942;2023-02-11T17:06:31;31.65;;;14.68;;
74369;SDS011;62805;44.644;10.942;2023-02-11T17:08:57;30.73;;;14.15;;
74369;SDS011;62805;44.644;10.942;2023-02-11T17:11:23;33.13;;;15.32;;
74369;SDS011;62805;44.644;10.942;2023-02-11T17:13:48;32.17;;;14.80;;
74369;SDS011;62805;44.644;10.942;2023-02-11T17:16:18;33.97;;;15.15;;
74369;SDS011;62805;44.644;10.942;2023-02-11T17:18:45;32.72;;;14.48;;
74369;SDS011;62805;44.644;10.942;2023-02-11T17:21:11;28.67;;;14.30;;